Currently 68°F in French Valley, California, USA
68°F
96°F / 65°F
calm
0.00"
Tuesday, June 27, 2017 11:53 PM PDT

French Valley, California Weather Summary
Last 36 Hours

Temperature Winds Hourly Humidity Dewpoint
Time Report Norm Report Norm Max Gusts Precip. Rpt. Norm Rpt. Norm Pressure
1Tue 11:53 PM  68.3°F  67°F  calm  1 mph  none  0.00"  58%  76%  52°F  59°F  29.95"
Tue 11:00 PM  69.3°F  68°F  2 mph SE  1 mph  5 mph  0.00"  52%  74%  50°F  59°F  29.95"
Tue 10:00 PM  71.9°F  69°F  calm  2 mph  6 mph  0.00"  52%  71%  52°F  59°F  29.94"
Tue 09:00 PM  75.3°F  71°F  4 mph SE  3 mph  10 mph  0.00"  44%  67%  51°F  59°F  29.92"
Tue 08:00 PM  80.2°F  74°F  7 mph SE  5 mph  13 mph  0.00"  38%  60%  51°F  59°F  29.92"
Tue 07:00 PM  84.9°F  79°F  9 mph S  6 mph  18 mph  0.00"  26%  50%  45°F  58°F  29.93"
Tue 06:00 PM  88.5°F  82°F  6 mph S  7 mph  20 mph  0.00"  20%  44%  42°F  57°F  29.93"
Tue 05:00 PM  90.6°F  84°F  10 mph S  9 mph  21 mph  0.00"  18%  40%  39°F  56°F  29.94"
Tue 04:00 PM  92.0°F  86°F  13 mph S  8 mph  25 mph  0.00"  18%  37%  42°F  56°F  29.95"
Tue 03:00 PM  94.8°F  87°F  9 mph S  8 mph  19 mph  0.00"  16%  35%  40°F  55°F  29.95"
Tue 02:00 PM  95.3°F  88°F  10 mph S  7 mph  22 mph  0.00"  16%  34%  40°F  55°F  29.96"
2Tue 01:02 PM  96.5°F  87°F  4 mph S  6 mph  15 mph  ----  14%  36%  38°F  55°F  29.97"
Tue 01:00 PM  96.4°F  87°F  6 mph W  6 mph  15 mph  0.00"  14%  36%  38°F  55°F  29.97"
Tue 12:00 PM  94.2°F  85°F  4 mph SW  5 mph  12 mph  0.00"  14%  39%  37°F  56°F  29.98"
Tue 11:00 AM  92.3°F  82°F  5 mph SW  4 mph  13 mph  0.00"  14%  45%  34°F  57°F  29.99"
Tue 10:00 AM  88.5°F  78°F  3 mph S  2 mph  10 mph  0.00"  17%  53%  37°F  59°F  30.00"
Tue 09:00 AM  82.8°F  72°F  2 mph S  1 mph  5 mph  0.00"  26%  66%  43°F  60°F  30.01"
Tue 08:00 AM  76.2°F  67°F  calm  1 mph  3 mph  0.00"  35%  76%  45°F  59°F  30.01"
Tue 07:00 AM  68.6°F  63°F  calm  calm  none  0.00"  42%  83%  43°F  58°F  30.00"
Tue 06:00 AM  65.3°F  61°F  calm  calm  none  0.00"  46%  84%  43°F  56°F  29.99"
3Tue 05:47 AM  64.8°F  61°F  calm  calm  none  ----  47%  84%  43°F  56°F  29.99"
Tue 05:00 AM  67.2°F  62°F  calm  calm  none  0.00"  43%  84%  43°F  57°F  29.98"
Tue 04:00 AM  67.7°F  62°F  calm  1 mph  none  0.00"  46%  83%  45°F  57°F  29.98"
Tue 03:00 AM  68.0°F  63°F  calm  calm  1 mph  0.00"  48%  82%  47°F  58°F  29.98"
Tue 02:00 AM  70.1°F  64°F  calm  1 mph  5 mph  0.00"  40%  81%  44°F  58°F  29.98"
Tue 01:00 AM  72.0°F  65°F  3 mph SE  1 mph  7 mph  0.00"  49%  79%  51°F  58°F  29.99"
Tue 12:00 AM  74.0°F  66°F  calm  1 mph  6 mph  0.00"  36%  77%  44°F  58°F  30.01"
Mon 11:00 PM  77.3°F  67°F  calm  1 mph  5 mph  0.00"  40%  75%  50°F  59°F  30.02"
Mon 10:00 PM  82.8°F  69°F  calm  2 mph  5 mph  0.00"  23%  72%  40°F  59°F  30.01"
Mon 09:00 PM  86.3°F  71°F  calm  3 mph  6 mph  0.00"  24%  67%  44°F  59°F  29.99"
Mon 08:00 PM  92.3°F  74°F  2 mph SW  5 mph  11 mph  0.00"  13%  60%  33°F  59°F  29.98"
Mon 07:00 PM  94.4°F  78°F  7 mph S  6 mph  15 mph  0.00"  22%  50%  49°F  58°F  29.98"
Mon 06:00 PM  100.3°F  81°F  7 mph SW  7 mph  21 mph  0.00"  9%  44%  29°F  57°F  29.98"
Mon 05:00 PM  101.6°F  84°F  14 mph W  9 mph  23 mph  0.00"  8%  40%  28°F  56°F  30.00"
Mon 04:00 PM  102.3°F  85°F  13 mph W  8 mph  26 mph  0.00"  7%  37%  26°F  56°F  30.01"
Mon 03:00 PM  103.4°F  87°F  10 mph SW  8 mph  24 mph  0.00"  8%  36%  28°F  55°F  30.01"
Mon 02:00 PM  99.8°F  87°F  10 mph SE  7 mph  20 mph  0.00"  18%  35%  47°F  55°F  30.01"
Mon 01:00 PM  101.0°F  86°F  10 mph S  6 mph  17 mph  0.00"  17%  36%  47°F  55°F  30.02"
Mon 12:00 PM  100.3°F  84°F  6 mph S  5 mph  13 mph  0.00"  14%  39%  40°F  56°F  30.03"

  1. Current weather data. No green row appears if the current weather data is also the high or low for the current day.
  2. High temperature for the current day.
  3. Low temperature for the current day.

The French Valley, California weather pages are a service of WeatherCurrents. French Valley is located in southwestern Riverside County, California, north of Temecula, east of Murrieta, and south of Winchester. French Valley is bordered by Lake Skinner.
Copyright ©Tue Jun 27 23:54:34 PDT 2017  WeatherCurrents. All rights reserved. - Submit questions and comments - Privacy Policy

This page automatically refreshes every 10 minutes.